Time;durP1;ratioP1;P1;durP2;ratioP2;P2;SDS_P1;SDS_P2;PMS_P1;PMS_P2;Temp;Humidity;BMP_temperature;BMP_pressure;BME280_temperature;BME280_humidity;BME280_pressure;Samples;Min_cycle;Max_cycle;Signal;HPM_P1;HPM_P2
2023/05/10 00:01:43;;;;;;;1999.90;999.90;;;13.40;99.90;;;;;;5032708;28;20182;-67
2023/05/10 00:04:09;;;;;;;1999.90;999.90;;;13.40;99.90;;;;;;5032873;28;20239;-67
2023/05/10 00:06:34;;;;;;;1999.90;999.90;;;13.40;99.90;;;;;;5033085;28;20172;-67
2023/05/10 00:09:00;;;;;;;1999.90;999.90;;;13.40;99.90;;;;;;5033027;28;20168;-67
2023/05/10 00:11:25;;;;;;;1999.90;999.90;;;13.40;99.90;;;;;;5032685;28;20171;-67
2023/05/10 00:13:51;;;;;;;1999.90;999.90;;;13.30;99.90;;;;;;5032675;28;20175;-67
2023/05/10 00:16:17;;;;;;;1999.90;999.90;;;13.40;99.90;;;;;;5032577;28;20177;-67
2023/05/10 00:18:42;;;;;;;1999.90;999.90;;;13.40;99.90;;;;;;5032677;28;20178;-67
2023/05/10 00:21:08;;;;;;;1999.90;999.90;;;13.40;99.90;;;;;;5032586;28;20175;-67
2023/05/10 00:23:33;;;;;;;1999.90;999.90;;;13.40;99.90;;;;;;5032545;28;20214;-68
2023/05/10 00:25:59;;;;;;;1999.90;999.90;;;13.40;99.90;;;;;;5032420;28;20190;-67
2023/05/10 00:28:26;;;;;;;1999.90;999.90;;;13.40;99.90;;;;;;5032422;28;20172;-67
2023/05/10 00:30:52;;;;;;;1999.90;999.90;;;13.40;99.90;;;;;;5032260;28;20177;-67
2023/05/10 00:33:18;;;;;;;1999.90;999.90;;;13.40;99.90;;;;;;5032067;28;20414;-67
2023/05/10 00:35:43;;;;;;;1999.90;999.90;;;13.40;99.90;;;;;;5032184;28;20272;-67
2023/05/10 00:38:09;;;;;;;1999.90;999.90;;;13.40;99.90;;;;;;5032309;28;20298;-67
2023/05/10 00:40:36;;;;;;;1999.90;999.90;;;13.40;99.90;;;;;;5032218;28;20255;-68
2023/05/10 00:43:02;;;;;;;1999.90;999.90;;;13.40;99.90;;;;;;5032075;28;20608;-67
2023/05/10 00:45:30;;;;;;;1999.90;999.90;;;13.40;99.90;;;;;;5032188;28;20429;-67
2023/05/10 00:47:56;;;;;;;1999.90;999.90;;;13.30;99.90;;;;;;5032062;28;20529;-67
2023/05/10 00:50:24;;;;;;;1999.90;999.90;;;13.30;99.90;;;;;;5032098;28;20489;-68
2023/05/10 00:52:50;;;;;;;1999.90;999.90;;;13.30;99.90;;;;;;5031836;28;20683;-67
2023/05/10 00:55:16;;;;;;;1999.90;999.90;;;13.30;99.90;;;;;;5031957;28;20437;-67
2023/05/10 00:57:42;;;;;;;1999.90;999.90;;;13.30;99.90;;;;;;5031893;28;20214;-66
2023/05/10 01:00:08;;;;;;;1999.90;999.90;;;13.30;99.90;;;;;;5032081;28;20423;-67
2023/05/10 01:02:35;;;;;;;1999.90;999.90;;;13.30;99.90;;;;;;5031733;28;20442;-66
2023/05/10 01:05:03;;;;;;;1999.90;999.90;;;13.40;99.90;;;;;;5031906;28;20509;-67
2023/05/10 01:07:29;;;;;;;1999.90;999.90;;;13.40;99.90;;;;;;5031776;28;20505;-67
2023/05/10 01:09:55;;;;;;;1999.90;999.90;;;13.40;99.90;;;;;;5031836;28;20441;-67
2023/05/10 01:12:20;;;;;;;1999.90;999.90;;;13.40;99.90;;;;;;5031506;28;20174;-67
2023/05/10 01:14:46;;;;;;;1999.90;999.90;;;13.50;99.90;;;;;;5031721;28;20421;-66
2023/05/10 01:17:13;;;;;;;1999.90;999.90;;;13.50;99.90;;;;;;5031813;28;20286;-67
2023/05/10 01:19:38;;;;;;;1999.90;999.90;;;13.50;99.90;;;;;;5031760;28;20433;-67
2023/05/10 01:22:39;;;;;;;1999.90;999.90;;;13.50;99.90;;;;;;5031542;28;20429;-67
2023/05/10 01:26:00;;;;;;;1999.90;999.90;;;13.50;99.90;;;;;;5031834;28;20545;-67
2023/05/10 01:29:11;;;;;;;1999.90;999.90;;;13.50;99.90;;;;;;4992863;28;20764;-67
2023/05/10 01:31:55;;;;;;;1999.90;999.90;;;13.50;99.90;;;;;;5031491;28;20410;-67
2023/05/10 01:34:37;;;;;;;1999.90;999.90;;;13.50;99.90;;;;;;5031607;28;20416;-66
2023/05/10 01:37:10;;;;;;;1999.90;999.90;;;13.50;99.90;;;;;;5031716;28;20442;-67
2023/05/10 01:40:00;;;;;;;1999.90;999.90;;;13.50;99.90;;;;;;5031615;28;20388;-67
2023/05/10 01:42:36;;;;;;;1999.90;999.90;;;13.50;99.90;;;;;;5031446;28;20445;-67
2023/05/10 01:45:19;;;;;;;1999.90;999.90;;;13.50;99.90;;;;;;5031415;28;20435;-66
2023/05/10 01:48:02;;;;;;;1999.90;999.90;;;13.60;99.90;;;;;;5035239;28;21021;-67
2023/05/10 01:50:30;;;;;;;1999.90;999.90;;;13.60;99.90;;;;;;5035420;28;20395;-67
2023/05/10 01:52:58;;;;;;;1999.90;999.90;;;13.60;99.90;;;;;;5035028;28;20412;-68
2023/05/10 01:55:30;;;;;;;1999.90;999.90;;;13.60;99.90;;;;;;5035289;28;20567;-67
2023/05/10 01:58:09;;;;;;;1999.90;999.90;;;13.60;99.90;;;;;;5035473;28;20967;-67
2023/05/10 02:00:36;;;;;;;1999.90;999.90;;;13.60;99.90;;;;;;5035254;28;20416;-68
2023/05/10 02:03:06;;;;;;;1999.90;999.90;;;13.60;99.90;;;;;;5034983;28;20410;-67
2023/05/10 02:05:34;;;;;;;1999.90;999.90;;;13.60;99.90;;;;;;5035089;28;20854;-67
2023/05/10 02:08:02;;;;;;;1999.90;999.90;;;13.60;99.90;;;;;;5035110;28;20405;-66
2023/05/10 02:10:29;;;;;;;1999.90;999.90;;;13.60;99.90;;;;;;5035047;28;20413;-67
2023/05/10 02:12:58;;;;;;;1999.90;999.90;;;13.60;99.90;;;;;;5035027;28;20405;-66
2023/05/10 02:15:26;;;;;;;1999.90;999.90;;;13.50;99.90;;;;;;5035099;28;20955;-66
2023/05/10 02:17:55;;;;;;;1999.90;999.90;;;13.50;99.90;;;;;;5035109;28;20445;-67
2023/05/10 02:20:23;;;;;;;1999.90;999.90;;;13.50;99.90;;;;;;5034923;28;20820;-67
2023/05/10 02:22:52;;;;;;;1999.90;999.90;;;13.40;99.90;;;;;;5034578;28;20398;-66
2023/05/10 02:25:20;;;;;;;1999.90;999.90;;;13.40;99.90;;;;;;5034646;28;20521;-66
2023/05/10 02:27:47;;;;;;;1999.90;999.90;;;13.40;99.90;;;;;;5034855;28;20788;-67
2023/05/10 02:30:13;;;;;;;1999.90;999.90;;;13.40;99.90;;;;;;5034690;28;20503;-67
2023/05/10 02:32:39;;;;;;;1999.90;999.90;;;13.40;99.90;;;;;;5034331;28;20929;-67
2023/05/10 02:35:07;;;;;;;1999.90;999.90;;;13.40;99.90;;;;;;5034452;28;20946;-66
2023/05/10 02:37:34;;;;;;;1999.90;999.90;;;13.40;99.90;;;;;;5034363;28;20458;-66
2023/05/10 02:40:02;;;;;;;1999.90;999.90;;;13.40;99.90;;;;;;5034484;28;20413;-67
2023/05/10 02:42:30;;;;;;;1999.90;999.90;;;13.40;99.90;;;;;;5034302;28;20419;-67
2023/05/10 02:45:00;;;;;;;1999.90;999.90;;;13.40;99.90;;;;;;5034352;28;20532;-67
2023/05/10 02:47:27;;;;;;;1999.90;999.90;;;13.40;99.90;;;;;;5034185;28;20458;-67
2023/05/10 02:49:53;;;;;;;1999.90;999.90;;;13.40;99.90;;;;;;5034736;28;20473;-66
2023/05/10 02:52:25;;;;;;;1999.90;999.90;;;13.40;99.90;;;;;;5034070;28;20425;-66
2023/05/10 02:54:55;;;;;;;1999.90;999.90;;;13.50;99.90;;;;;;5034124;28;20425;-66
2023/05/10 02:57:27;;;;;;;1999.90;999.90;;;13.50;99.90;;;;;;5034269;28;20448;-67
2023/05/10 02:59:52;;;;;;;1999.90;999.90;;;13.60;99.90;;;;;;5034214;28;20395;-67
2023/05/10 03:02:19;;;;;;;1999.90;999.90;;;13.50;99.90;;;;;;5034027;28;20413;-67
2023/05/10 03:04:45;;;;;;;1999.90;999.90;;;13.60;99.90;;;;;;5034031;28;20188;-67
2023/05/10 03:07:11;;;;;;;1999.90;999.90;;;13.60;99.90;;;;;;5034143;28;20441;-67
2023/05/10 03:09:36;;;;;;;1999.90;999.90;;;13.50;99.90;;;;;;5033925;28;20668;-67
2023/05/10 03:12:11;;;;;;;1999.90;999.90;;;13.50;99.90;;;;;;5033897;28;20240;-67
2023/05/10 03:14:45;;;;;;;1999.90;999.90;;;13.50;99.90;;;;;;5033782;28;20285;-67
2023/05/10 03:17:30;;;;;;;1999.90;999.90;;;13.50;99.90;;;;;;5033830;28;20450;-67
2023/05/10 03:19:59;;;;;;;1999.90;999.90;;;13.60;99.90;;;;;;5033898;28;20437;-67
2023/05/10 03:22:30;;;;;;;1999.90;999.90;;;13.60;99.90;;;;;;5033854;28;20422;-66
2023/05/10 03:24:59;;;;;;;1999.90;999.90;;;13.60;99.90;;;;;;5033575;28;20424;-66
2023/05/10 03:27:26;;;;;;;1999.90;999.90;;;13.60;99.90;;;;;;5033578;28;20494;-67
2023/05/10 03:29:54;;;;;;;1999.90;999.90;;;13.50;99.90;;;;;;5033502;28;20419;-67
2023/05/10 03:32:20;;;;;;;1999.90;999.90;;;13.50;99.90;;;;;;5033351;28;20418;-66
2023/05/10 03:34:45;;;;;;;1999.90;999.90;;;13.50;99.90;;;;;;5033355;28;20794;-67
2023/05/10 03:37:11;;;;;;;1999.90;999.90;;;13.50;99.90;;;;;;5033369;28;20250;-68
2023/05/10 03:39:37;;;;;;;1999.90;999.90;;;13.50;99.90;;;;;;5033398;28;20187;-67
2023/05/10 03:42:02;;;;;;;1999.90;999.90;;;13.40;99.90;;;;;;5033040;28;20177;-67
2023/05/10 03:44:28;;;;;;;1999.90;999.90;;;13.40;99.90;;;;;;5033166;28;20277;-66
2023/05/10 03:46:54;;;;;;;1999.90;999.90;;;13.40;99.90;;;;;;5033183;28;20210;-67
2023/05/10 03:49:19;;;;;;;1999.90;999.90;;;13.40;99.90;;;;;;5033208;28;20177;-67
2023/05/10 03:51:45;;;;;;;1999.90;999.90;;;13.40;99.90;;;;;;5050422;28;20187;-67
2023/05/10 03:54:10;;;;;;;1999.90;999.90;;;13.40;99.90;;;;;;5052904;28;20227;-66
2023/05/10 03:56:36;;;;;;;1999.90;999.90;;;13.30;99.90;;;;;;5053036;28;20180;-67
2023/05/10 03:59:06;;;;;;;1999.90;999.90;;;13.30;99.90;;;;;;5053084;28;20710;-66
2023/05/10 04:01:33;;;;;;;1999.90;999.90;;;13.30;99.90;;;;;;5052799;28;20219;-67
2023/05/10 04:03:58;;;;;;;1999.90;999.90;;;13.20;99.90;;;;;;5052907;28;20859;-67
2023/05/10 04:06:24;;;;;;;1999.90;999.90;;;13.30;99.90;;;;;;5052770;28;20408;-67
2023/05/10 04:08:49;;;;;;;1999.90;999.90;;;13.30;99.90;;;;;;5052105;28;20539;-67
2023/05/10 04:11:15;;;;;;;1999.90;999.90;;;13.40;99.90;;;;;;5052514;28;20195;-66
2023/05/10 04:13:41;;;;;;;1999.90;999.90;;;13.30;99.90;;;;;;5052675;28;20170;-67
2023/05/10 04:16:06;;;;;;;1999.90;999.90;;;13.30;99.90;;;;;;5052700;28;20283;-66
2023/05/10 04:18:32;;;;;;;1999.90;999.90;;;13.30;99.90;;;;;;5052496;28;20205;-66
2023/05/10 04:20:59;;;;;;;1999.90;999.90;;;13.30;99.90;;;;;;5052369;28;20220;-67
2023/05/10 04:23:24;;;;;;;1999.90;999.90;;;13.30;99.90;;;;;;5052498;28;20436;-67
2023/05/10 04:25:50;;;;;;;1999.90;999.90;;;13.40;99.90;;;;;;5052400;28;20553;-66
2023/05/10 04:28:15;;;;;;;1999.90;999.90;;;13.40;99.90;;;;;;5052479;28;20168;-67
2023/05/10 04:30:41;;;;;;;1999.90;999.90;;;13.40;99.90;;;;;;5052355;28;20165;-67
2023/05/10 04:33:07;;;;;;;1999.90;999.90;;;13.40;99.90;;;;;;5052251;28;20571;-67
2023/05/10 04:35:32;;;;;;;1999.90;999.90;;;13.40;99.90;;;;;;5052324;28;20200;-66
2023/05/10 04:37:58;;;;;;;1999.90;999.90;;;13.40;99.90;;;;;;5052177;28;20766;-67
2023/05/10 04:40:23;;;;;;;1999.90;999.90;;;13.40;99.90;;;;;;5052195;28;20222;-67
2023/05/10 04:42:49;;;;;;;1999.90;999.90;;;13.30;99.90;;;;;;5052129;28;20257;-66
2023/05/10 04:45:15;;;;;;;1999.90;999.90;;;13.30;99.90;;;;;;5052059;28;20232;-67
2023/05/10 04:47:40;;;;;;;1999.90;999.90;;;13.20;99.90;;;;;;5052082;28;20194;-67
2023/05/10 04:50:07;;;;;;;1999.90;999.90;;;13.30;99.90;;;;;;5052049;28;20777;-67
2023/05/10 04:52:32;;;;;;;1999.90;999.90;;;13.30;99.90;;;;;;5051863;28;20181;-66
2023/05/10 04:54:58;;;;;;;1999.90;999.90;;;13.30;99.90;;;;;;5051923;28;20420;-66
2023/05/10 04:57:23;;;;;;;1999.90;999.90;;;13.30;99.90;;;;;;5051827;28;20204;-66
2023/05/10 04:59:49;;;;;;;1999.90;999.90;;;13.40;99.90;;;;;;5051979;28;20248;-66
2023/05/10 05:02:15;;;;;;;1999.90;999.90;;;13.40;99.90;;;;;;5051600;28;20657;-66
2023/05/10 05:04:40;;;;;;;1999.90;999.90;;;13.30;99.90;;;;;;5051753;28;20250;-66
2023/05/10 05:07:06;;;;;;;1999.90;999.90;;;13.30;99.90;;;;;;5051979;28;20443;-66
2023/05/10 05:09:32;;;;;;;1999.90;999.90;;;13.30;99.90;;;;;;5034028;28;20173;-66
2023/05/10 05:11:58;;;;;;;1999.90;999.90;;;13.30;99.90;;;;;;5051736;28;20174;-66
2023/05/10 05:14:25;;;;;;;1999.90;999.90;;;13.30;99.90;;;;;;5051703;28;20207;-65
2023/05/10 05:16:51;;;;;;;1999.90;999.90;;;13.30;99.90;;;;;;5051713;28;20486;-66
2023/05/10 05:19:16;;;;;;;1999.90;999.90;;;13.30;99.90;;;;;;5051806;28;20428;-66
2023/05/10 05:21:43;;;;;;;1999.90;999.90;;;13.30;99.90;;;;;;5053927;28;20704;-66
2023/05/10 05:24:09;;;;;;;1999.90;999.90;;;13.30;99.90;;;;;;5055671;28;20220;-66
2023/05/10 05:26:36;;;;;;;1999.90;999.90;;;13.30;99.90;;;;;;5055951;28;20787;-66
2023/05/10 05:29:01;;;;;;;1999.90;999.90;;;13.40;99.90;;;;;;5055967;28;20413;-66
2023/05/10 05:31:27;;;;;;;1999.90;999.90;;;13.40;99.90;;;;;;5055511;28;20795;-66
2023/05/10 05:33:53;;;;;;;1999.90;999.90;;;13.40;99.90;;;;;;5055528;28;20164;-66
2023/05/10 05:36:18;;;;;;;1999.90;999.90;;;13.40;99.90;;;;;;5055512;28;20171;-66
2023/05/10 05:38:44;;;;;;;1999.90;999.90;;;13.50;99.90;;;;;;5055822;28;20296;-66
2023/05/10 05:41:09;;;;;;;1999.90;999.90;;;13.40;99.90;;;;;;5055330;28;20174;-66
2023/05/10 05:43:35;;;;;;;1999.90;999.90;;;13.50;99.90;;;;;;5055673;28;20257;-66
2023/05/10 05:46:00;;;;;;;1999.90;999.90;;;13.50;99.90;;;;;;5055231;28;20207;-66
2023/05/10 05:48:26;;;;;;;1999.90;999.90;;;13.50;99.90;;;;;;5055639;28;20585;-66
2023/05/10 05:50:56;;;;;;;1999.90;999.90;;;13.50;99.90;;;;;;5055209;28;20176;-66
2023/05/10 05:53:22;;;;;;;1999.90;999.90;;;13.50;99.90;;;;;;5055613;28;20216;-67
2023/05/10 05:55:57;;;;;;;1999.90;999.90;;;13.50;99.90;;;;;;5055508;28;20432;-66
2023/05/10 05:58:24;;;;;;;1999.90;999.90;;;13.40;99.90;;;;;;5055179;28;20238;-67
2023/05/10 06:00:51;;;;;;;1999.90;999.90;;;13.40;99.90;;;;;;5055189;28;20458;-67
2023/05/10 06:03:17;;;;;;;1999.90;999.90;;;13.40;99.90;;;;;;5054955;28;20426;-67
2023/05/10 06:05:43;;;;;;;1999.90;999.90;;;13.40;99.90;;;;;;5055009;28;20982;-67
2023/05/10 06:08:09;;;;;;;1999.90;999.90;;;13.40;99.90;;;;;;5055165;28;20449;-67
2023/05/10 06:10:35;;;;;;;1999.90;999.90;;;13.40;99.90;;;;;;5054952;28;20417;-67
2023/05/10 06:13:01;;;;;;;1999.90;999.90;;;13.40;99.90;;;;;;5054748;28;20411;-67
2023/05/10 06:15:27;;;;;;;1999.90;999.90;;;13.40;99.90;;;;;;5054820;28;20793;-66
2023/05/10 06:17:52;;;;;;;1999.90;999.90;;;13.40;99.90;;;;;;5054685;28;20201;-66
2023/05/10 06:20:18;;;;;;;1999.90;999.90;;;13.40;99.90;;;;;;5054773;28;20423;-67
2023/05/10 06:22:44;;;;;;;1999.90;999.90;;;13.40;99.90;;;;;;5054499;28;20186;-67
2023/05/10 06:25:10;;;;;;;1999.90;999.90;;;13.40;99.90;;;;;;5054599;28;20219;-67
2023/05/10 06:27:35;;;;;;;1999.90;999.90;;;13.40;99.90;;;;;;5054983;28;20642;-67
2023/05/10 06:30:02;;;;;;;1999.90;999.90;;;13.40;99.90;;;;;;5054525;28;20438;-67
2023/05/10 06:32:28;;;;;;;1999.90;999.90;;;13.50;99.90;;;;;;5053808;28;20177;-67
2023/05/10 06:34:53;;;;;;;1999.90;999.90;;;13.40;99.90;;;;;;5054411;28;20468;-66
2023/05/10 06:37:19;;;;;;;1999.90;999.90;;;13.40;99.90;;;;;;5054491;28;20261;-67
2023/05/10 06:39:44;;;;;;;1999.90;999.90;;;13.40;99.90;;;;;;5054465;28;20624;-67
2023/05/10 06:42:10;;;;;;;1999.90;999.90;;;13.40;99.90;;;;;;5054115;28;20213;-67
2023/05/10 06:44:36;;;;;;;1999.90;999.90;;;13.50;99.90;;;;;;5054278;28;20197;-67
2023/05/10 06:47:01;;;;;;;1999.90;999.90;;;13.50;99.90;;;;;;5054230;28;20273;-67
2023/05/10 06:49:27;;;;;;;1999.90;999.90;;;13.50;99.90;;;;;;5054200;28;20177;-67
2023/05/10 06:51:53;;;;;;;1999.90;999.90;;;13.50;99.90;;;;;;5053867;28;20182;-67
2023/05/10 06:54:18;;;;;;;1999.90;999.90;;;13.50;99.90;;;;;;5054274;28;20192;-67
2023/05/10 06:56:44;;;;;;;1999.90;999.90;;;13.50;99.90;;;;;;5054069;28;20188;-67
2023/05/10 06:59:10;;;;;;;1999.90;999.90;;;13.50;99.90;;;;;;5054069;28;20175;-67
2023/05/10 07:01:35;;;;;;;1999.90;999.90;;;13.50;99.90;;;;;;5053819;28;20174;-66
2023/05/10 07:04:01;;;;;;;1999.90;999.90;;;13.40;99.90;;;;;;5053867;28;20577;-66
2023/05/10 07:06:27;;;;;;;1999.90;999.90;;;13.60;99.90;;;;;;5054001;28;20214;-66
2023/05/10 07:08:52;;;;;;;1999.90;999.90;;;13.60;99.90;;;;;;5053968;28;20178;-66
2023/05/10 07:11:18;;;;;;;1999.90;999.90;;;13.60;99.90;;;;;;5053893;28;20904;-66
2023/05/10 07:13:45;;;;;;;1999.90;999.90;;;13.60;99.90;;;;;;5053830;28;20170;-66
2023/05/10 07:16:11;;;;;;;1999.90;999.90;;;13.60;99.90;;;;;;5053720;28;20184;-67
2023/05/10 07:18:37;;;;;;;1999.90;999.90;;;13.60;99.90;;;;;;5053615;28;20463;-67
2023/05/10 07:21:03;;;;;;;1999.90;999.90;;;13.60;99.90;;;;;;5053396;28;20456;-66
2023/05/10 07:23:29;;;;;;;1999.90;999.90;;;13.50;99.90;;;;;;5053607;28;20164;-66
2023/05/10 07:25:57;;;;;;;1999.90;999.90;;;13.50;99.90;;;;;;5053555;28;20786;-67
2023/05/10 07:28:23;;;;;;;1999.90;999.90;;;13.40;99.90;;;;;;5053537;28;20461;-66
2023/05/10 07:30:50;;;;;;;1999.90;999.90;;;13.40;99.90;;;;;;5053304;28;20436;-66
2023/05/10 07:33:15;;;;;;;1999.90;999.90;;;13.40;99.90;;;;;;5053150;28;20898;-67
2023/05/10 07:35:41;;;;;;;1999.90;999.90;;;13.50;99.90;;;;;;5053498;28;20437;-67
2023/05/10 07:38:07;;;;;;;1999.90;999.90;;;13.50;99.90;;;;;;5053215;28;20259;-67
2023/05/10 07:40:33;;;;;;;1999.90;999.90;;;13.50;99.90;;;;;;5053343;28;20174;-67
2023/05/10 07:42:59;;;;;;;1999.90;999.90;;;13.50;99.90;;;;;;5052528;28;20169;-67
2023/05/10 07:45:25;;;;;;;1999.90;999.90;;;13.50;99.90;;;;;;5052692;28;20780;-67
2023/05/10 07:47:50;;;;;;;1999.90;999.90;;;13.40;99.90;;;;;;5053180;28;20518;-67
2023/05/10 07:50:16;;;;;;;1999.90;999.90;;;13.40;99.90;;;;;;5053076;28;20687;-67
2023/05/10 07:52:42;;;;;;;1999.90;999.90;;;13.50;99.90;;;;;;5052827;28;20168;-67
2023/05/10 07:55:08;;;;;;;1999.90;999.90;;;13.50;99.90;;;;;;5052950;28;20193;-66
2023/05/10 07:57:34;;;;;;;1999.90;999.90;;;13.50;99.90;;;;;;5052849;28;20204;-67
2023/05/10 08:00:00;;;;;;;1999.90;999.90;;;13.60;99.90;;;;;;5052831;28;20428;-67
2023/05/10 08:02:25;;;;;;;1999.90;999.90;;;13.60;99.90;;;;;;5052553;28;20862;-67
2023/05/10 08:04:51;;;;;;;1999.90;999.90;;;13.70;99.90;;;;;;5052827;28;20798;-67
2023/05/10 08:07:17;;;;;;;1999.90;999.90;;;13.70;99.90;;;;;;5052765;28;20200;-67
2023/05/10 08:09:43;;;;;;;1999.90;999.90;;;13.80;99.90;;;;;;5052771;28;20176;-67
2023/05/10 08:12:08;;;;;;;1999.90;999.90;;;13.80;99.90;;;;;;5052481;28;20182;-67
2023/05/10 08:14:36;;;;;;;1999.90;999.90;;;13.90;99.90;;;;;;5052546;28;20223;-67
2023/05/10 08:17:02;;;;;;;1999.90;999.90;;;14.00;99.90;;;;;;5052521;28;20286;-66
2023/05/10 08:19:27;;;;;;;1999.90;999.90;;;14.10;99.90;;;;;;5052578;28;20431;-66
2023/05/10 08:21:55;;;;;;;1999.90;999.90;;;14.20;99.90;;;;;;5052277;28;20497;-67
2023/05/10 08:24:21;;;;;;;1999.90;999.90;;;14.30;99.90;;;;;;5052415;28;20522;-67
2023/05/10 08:26:47;;;;;;;1999.90;999.90;;;14.40;99.90;;;;;;5052494;28;20407;-67
2023/05/10 08:29:13;;;;;;;1999.90;999.90;;;14.40;99.90;;;;;;5035949;28;20466;-67
2023/05/10 08:31:39;;;;;;;1999.90;999.90;;;14.60;99.90;;;;;;5030163;28;20914;-67
2023/05/10 08:34:04;;;;;;;1999.90;999.90;;;14.80;99.90;;;;;;5027753;28;20415;-67
2023/05/10 08:36:31;;;;;;;1999.90;999.90;;;14.80;99.90;;;;;;5010099;28;20268;-68
2023/05/10 08:38:58;;;;;;;1999.90;999.90;;;14.70;99.90;;;;;;5027568;28;20272;-67
2023/05/10 08:41:25;;;;;;;1999.90;999.90;;;14.80;99.90;;;;;;5027787;28;20413;-67
2023/05/10 08:43:52;;;;;;;1999.90;999.90;;;14.80;99.90;;;;;;5027452;28;20484;-67
2023/05/10 08:46:19;;;;;;;1999.90;999.90;;;14.60;99.90;;;;;;5027583;28;20434;-67
2023/05/10 08:48:46;;;;;;;1999.90;999.90;;;14.50;99.90;;;;;;5028228;28;20416;-66
2023/05/10 08:51:21;;;;;;;1999.90;999.90;;;14.50;99.90;;;;;;5027036;28;20430;-68
2023/05/10 08:53:47;;;;;;;1999.90;999.90;;;14.40;99.90;;;;;;5027370;28;20447;-67
2023/05/10 08:56:15;;;;;;;1999.90;999.90;;;14.30;99.90;;;;;;5027515;28;20593;-67
2023/05/10 08:58:41;;;;;;;1999.90;999.90;;;14.20;99.90;;;;;;5027923;28;20444;-67
2023/05/10 09:01:08;;;;;;;1999.90;999.90;;;14.20;99.90;;;;;;5026957;28;20497;-67
2023/05/10 09:03:34;;;;;;;1999.90;999.90;;;14.20;99.90;;;;;;5027843;28;20904;-67
2023/05/10 09:06:00;;;;;;;1999.90;999.90;;;14.20;99.90;;;;;;5027856;28;20455;-67
2023/05/10 09:08:26;;;;;;;1999.90;999.90;;;14.20;99.90;;;;;;5026963;28;20923;-68
2023/05/10 09:10:53;;;;;;;1999.90;999.90;;;14.20;99.90;;;;;;5027376;28;20203;-67
2023/05/10 09:13:19;;;;;;;1999.90;999.90;;;14.30;99.90;;;;;;5027772;28;20414;-66
2023/05/10 09:15:45;;;;;;;1999.90;999.90;;;14.20;99.90;;;;;;5026909;28;20506;-66
2023/05/10 09:18:11;;;;;;;1999.90;999.90;;;14.30;99.90;;;;;;5027986;28;20453;-67
2023/05/10 09:20:37;;;;;;;1999.90;999.90;;;14.30;99.90;;;;;;5027676;28;21233;-66
2023/05/10 09:23:03;;;;;;;1999.90;999.90;;;14.50;99.90;;;;;;5027087;28;20417;-66
2023/05/10 09:25:28;;;;;;;1999.90;999.90;;;14.60;99.90;;;;;;5027943;28;20564;-66
2023/05/10 09:27:55;;;;;;;1999.90;999.90;;;14.60;99.90;;;;;;5027247;28;20170;-66
2023/05/10 09:30:26;;;;;;;1999.90;999.90;;;14.80;99.90;;;;;;5026328;28;20673;-65
2023/05/10 09:32:52;;;;;;;1999.90;999.90;;;14.80;99.90;;;;;;5027626;28;20447;-70
2023/05/10 09:35:21;;;;;;;1999.90;999.90;;;14.80;99.90;;;;;;5027565;28;21413;-68
2023/05/10 09:37:49;;;;;;;1999.90;999.90;;;14.90;99.90;;;;;;5026329;28;20538;-68
2023/05/10 09:40:20;;;;;;;1999.90;999.90;;;14.80;99.90;;;;;;5026983;28;20499;-67
2023/05/10 09:42:59;;;;;;;1999.90;999.90;;;14.80;99.90;;;;;;5027437;28;20466;-66
2023/05/10 09:45:26;;;;;;;1999.90;999.90;;;14.70;99.90;;;;;;5027059;28;20432;-68
2023/05/10 09:47:52;;;;;;;1999.90;999.90;;;14.70;99.90;;;;;;5026420;28;21323;-68
2023/05/10 09:50:20;;;;;;;1999.90;999.90;;;14.70;99.90;;;;;;5026125;28;20459;-67
2023/05/10 09:52:51;;;;;;;1999.90;999.90;;;14.80;99.90;;;;;;5026221;28;20418;-69
2023/05/10 09:55:19;;;;;;;1999.90;999.90;;;14.80;99.90;;;;;;5026147;28;20461;-68
2023/05/10 09:57:47;;;;;;;1999.90;999.90;;;14.80;99.90;;;;;;5026514;28;20518;-67
2023/05/10 10:00:19;;;;;;;1999.90;999.90;;;14.70;99.90;;;;;;5026017;28;20995;-67
2023/05/10 10:02:47;;;;;;;1999.90;999.90;;;14.70;99.90;;;;;;5026275;28;20424;-65
2023/05/10 10:05:13;;;;;;;1999.90;999.90;;;14.60;99.90;;;;;;5027343;28;20433;-67
2023/05/10 10:07:39;;;;;;;1999.90;999.90;;;14.70;99.90;;;;;;5028510;28;20417;-67
2023/05/10 10:10:11;;;;;;;1999.90;999.90;;;14.80;99.90;;;;;;5030847;28;20906;-66
2023/05/10 10:12:37;;;;;;;1999.90;999.90;;;14.80;99.90;;;;;;5030939;28;20424;-67
2023/05/10 10:15:04;;;;;;;1999.90;999.90;;;15.00;99.90;;;;;;5029881;28;20497;-68
2023/05/10 10:17:31;;;;;;;1999.90;999.90;;;15.20;99.90;;;;;;5030180;28;20505;-67
2023/05/10 10:19:57;;;;;;;1999.90;999.90;;;15.30;99.90;;;;;;5031197;28;20415;-68
2023/05/10 10:22:23;;;;;;;1999.90;999.90;;;15.40;99.90;;;;;;5029611;28;20461;-67
2023/05/10 10:24:50;;;;;;;1999.90;999.90;;;15.70;99.90;;;;;;5030328;28;20957;-68
2023/05/10 10:27:35;;;;;;;1999.90;999.90;;;15.60;99.90;;;;;;5031113;28;20191;-68
2023/05/10 10:30:21;;;;;;;1999.90;999.90;;;15.80;99.90;;;;;;5029816;28;20512;-67
2023/05/10 10:33:07;;;;;;;1999.90;999.90;;;15.90;99.90;;;;;;5030040;28;20803;-69
2023/05/10 10:35:34;;;;;;;1999.90;999.90;;;16.10;99.90;;;;;;5030093;28;20453;-68
2023/05/10 10:38:00;;;;;;;1999.90;999.90;;;16.40;99.90;;;;;;5029472;28;20453;-67
2023/05/10 10:40:27;;;;;;;1999.90;999.90;;;16.50;99.90;;;;;;5030520;28;20849;-66
2023/05/10 10:42:54;;;;;;;1999.90;999.90;;;16.70;99.90;;;;;;5030278;28;20503;-67
2023/05/10 10:45:21;;;;;;;1999.90;999.90;;;16.90;99.90;;;;;;5029640;28;20696;-69
2023/05/10 10:47:46;;;;;;;1999.90;999.90;;;16.90;99.90;;;;;;5030429;28;20943;-66
2023/05/10 10:50:12;;;;;;;1999.90;999.90;;;17.00;99.90;;;;;;5030319;28;20470;-67
2023/05/10 10:52:45;;;;;;;1999.90;999.90;;;16.80;99.90;;;;;;5029052;28;20189;-67
2023/05/10 10:55:19;;;;;;;1999.90;999.90;;;16.70;99.90;;;;;;5029474;28;20437;-68
2023/05/10 10:57:51;;;;;;;1999.90;999.90;;;16.70;99.90;;;;;;5029872;28;20515;-65
2023/05/10 11:00:30;;;;;;;1999.90;999.90;;;16.80;99.90;;;;;;5029862;28;20791;-68
2023/05/10 11:03:07;;;;;;;1999.90;999.90;;;16.90;99.90;;;;;;5030148;28;20929;-67
2023/05/10 11:05:36;;;;;;;1999.90;999.90;;;16.80;99.90;;;;;;5030217;28;21094;-68
2023/05/10 11:08:31;;;;;;;1999.90;999.90;;;16.80;99.90;;;;;;5029745;28;20406;-68
2023/05/10 11:10:59;;;;;;;1999.90;999.90;;;16.90;99.90;;;;;;5029178;28;20799;-67
2023/05/10 11:13:37;;;;;;;1999.90;999.90;;;16.90;99.90;;;;;;5029456;28;20419;-66
2023/05/10 11:16:26;;;;;;;1999.90;999.90;;;17.10;99.90;;;;;;5029835;28;20432;-66
2023/05/10 11:19:01;;;;;;;1999.90;999.90;;;17.30;99.90;;;;;;5029418;28;20458;-68
2023/05/10 11:21:28;;;;;;;1999.90;999.90;;;17.50;99.90;;;;;;5028412;28;20414;-67
2023/05/10 11:23:58;;;;;;;1999.90;999.90;;;17.80;99.90;;;;;;5029839;28;20419;-65
2023/05/10 11:26:36;;;;;;;1999.90;999.90;;;18.00;99.90;;;;;;5029760;28;20969;-68
2023/05/10 11:29:04;;;;;;;1999.90;999.90;;;18.10;99.90;;;;;;5029333;28;20422;-68
2023/05/10 11:31:30;;;;;;;1999.90;999.90;;;17.90;99.90;;;;;;5028850;28;20910;-68
2023/05/10 11:33:58;;;;;;;1999.90;999.90;;;17.80;99.90;;;;;;5029141;28;20439;-67
2023/05/10 11:36:25;;;;;;;1999.90;999.90;;;18.00;99.90;;;;;;5029466;28;20192;-68
2023/05/10 11:38:51;;;;;;;1999.90;999.90;;;18.20;99.90;;;;;;5028884;28;20872;-68
2023/05/10 11:41:18;;;;;;;1999.90;999.90;;;18.40;99.90;;;;;;5028656;28;20408;-67
2023/05/10 11:43:48;;;;;;;1999.90;999.90;;;18.30;99.90;;;;;;5029238;28;20435;-68
2023/05/10 11:46:14;;;;;;;1999.90;999.90;;;18.40;99.90;;;;;;5028979;28;20635;-68
2023/05/10 11:48:40;;;;;;;1999.90;999.90;;;18.40;99.90;;;;;;5028771;28;20429;-68
2023/05/10 11:51:07;;;;;;;1999.90;999.90;;;18.50;99.90;;;;;;5028890;28;20980;-69
2023/05/10 11:53:33;;;;;;;1999.90;999.90;;;18.40;99.90;;;;;;5028808;28;20444;-68
2023/05/10 11:56:11;;;;;;;1999.90;999.90;;;18.50;99.90;;;;;;5028607;28;20486;-68
2023/05/10 11:58:38;;;;;;;1999.90;999.90;;;18.30;99.90;;;;;;5028020;28;20201;-68
2023/05/10 12:01:06;;;;;;;1999.90;999.90;;;18.20;99.90;;;;;;5029011;28;20428;-68
2023/05/10 12:03:32;;;;;;;1999.90;999.90;;;18.10;99.90;;;;;;5029045;28;20509;-68